Time,TemperatureF,DewpointF,PressureIn,WindDirection,WindDirectionDegrees,WindSpeedMPH,WindSpeedGustMPH,Humidity,HourlyPrecipIn,Conditions,Clouds,dailyrainin,SoftwareType,DateUTC
2013-07-18 00:11:00,79.0,78.0,-100.00,South,170,1.0,2.0,95,0.00,,,-99.99,,2013-07-18 05:11:00,
2013-07-18 00:22:00,78.0,77.0,-100.00,SSE,165,1.0,2.0,95,0.00,,,-99.99,,2013-07-18 05:22:00,
2013-07-18 00:32:00,78.0,77.0,-100.00,SSE,165,1.0,2.0,95,0.00,,,-99.99,,2013-07-18 05:32:00,
2013-07-18 00:42:00,78.0,76.0,-100.00,SSW,200,0.0,1.0,95,0.00,,,-99.99,,2013-07-18 05:42:00,
2013-07-18 01:12:00,76.0,75.0,-100.00,SSE,160,2.0,3.0,95,0.00,,,-99.99,,2013-07-18 06:12:00,
2013-07-18 01:32:00,76.0,75.0,-100.00,South,175,2.0,3.0,95,0.00,,,-99.99,,2013-07-18 06:32:00,
2013-07-18 01:43:00,77.0,75.0,-100.00,SSE,155,1.0,6.0,95,0.00,,,-99.99,,2013-07-18 06:43:00,
2013-07-18 01:52:00,76.0,74.0,-100.00,ESE,105,2.0,4.0,95,0.00,,,-99.99,,2013-07-18 06:52:00,
2013-07-18 02:12:00,76.0,74.0,-100.00,WSW,240,4.0,7.0,95,0.00,,,-99.99,,2013-07-18 07:12:00,
2013-07-18 02:32:00,78.0,76.0,-100.00,SW,220,7.0,9.0,95,0.08,,,-99.99,,2013-07-18 07:32:00,
2013-07-18 02:42:00,77.0,76.0,-100.00,SW,230,4.0,7.0,95,0.00,,,-99.99,,2013-07-18 07:42:00,
2013-07-18 02:52:00,77.0,76.0,-100.00,SW,215,4.0,7.0,95,0.00,,,-99.99,,2013-07-18 07:52:00,
2013-07-18 03:11:00,77.0,75.0,-100.00,SW,215,5.0,8.0,95,0.00,,,-99.99,,2013-07-18 08:11:00,
2013-07-18 03:21:00,76.0,74.0,-100.00,SW,220,2.0,7.0,95,0.00,,,-99.99,,2013-07-18 08:21:00,
2013-07-18 03:32:00,76.0,74.0,-100.00,SW,220,2.0,7.0,95,0.00,,,-99.99,,2013-07-18 08:32:00,
2013-07-18 03:42:00,77.0,75.0,-100.00,SW,230,4.0,7.0,95,0.00,,,-99.99,,2013-07-18 08:42:00,
2013-07-18 04:11:00,77.0,75.0,-100.00,SW,230,4.0,8.0,95,0.00,,,-99.99,,2013-07-18 09:11:00,
2013-07-18 04:32:00,77.0,75.0,-100.00,SW,225,6.0,7.0,95,0.00,,,-99.99,,2013-07-18 09:32:00,
2013-07-18 04:41:00,77.0,76.0,-100.00,SW,235,3.0,6.0,95,0.00,,,-99.99,,2013-07-18 09:41:00,
2013-07-18 05:21:00,75.0,74.0,-100.00,NW,315,3.0,4.0,95,0.00,,,-99.99,,2013-07-18 10:21:00,
2013-07-18 05:32:00,75.0,74.0,-100.00,NW,315,3.0,4.0,95,0.00,,,-99.99,,2013-07-18 10:32:00,
2013-07-18 05:43:00,74.0,73.0,-100.00,NW,315,3.0,6.0,95,0.00,,,-99.99,,2013-07-18 10:43:00,
2013-07-18 05:52:00,75.0,74.0,-100.00,West,265,2.0,5.0,95,0.00,,,-99.99,,2013-07-18 10:52:00,
2013-07-18 06:01:00,75.0,73.0,-100.00,West,280,3.0,4.0,95,0.00,,,-99.99,,2013-07-18 11:01:00,
2013-07-18 06:11:00,75.0,73.0,-100.00,SW,220,3.0,4.0,95,0.00,,,-99.99,,2013-07-18 11:11:00,
2013-07-18 06:22:00,74.0,73.0,-100.00,WNW,300,1.0,4.0,95,0.00,,,-99.99,,2013-07-18 11:22:00,
2013-07-18 06:32:00,74.0,73.0,-100.00,East,90,1.0,2.0,95,0.00,,,-99.99,,2013-07-18 11:32:00,
2013-07-18 06:43:00,74.0,72.0,-100.00,SE,130,1.0,2.0,95,0.00,,,-99.99,,2013-07-18 11:43:00,
2013-07-18 06:52:00,75.0,73.0,-100.00,SW,215,1.0,3.0,95,0.00,,,-99.99,,2013-07-18 11:52:00,
2013-07-18 09:02:00,84.0,76.0,-100.00,West,260,7.0,12.0,77,0.00,,,-99.99,,2013-07-18 14:02:00,
2013-07-18 09:33:00,87.0,77.0,-100.00,SW,225,6.0,12.0,72,0.00,,,-99.99,,2013-07-18 14:33:00,
2013-07-18 09:43:00,87.0,77.0,-100.00,WSW,255,7.0,14.0,72,0.00,,,-99.99,,2013-07-18 14:43:00,
2013-07-18 10:11:00,88.0,78.0,-100.00,West,280,7.0,11.0,70,0.00,,,-99.99,,2013-07-18 15:11:00,
2013-07-18 10:22:00,88.0,77.0,-100.00,West,270,9.0,16.0,69,0.00,,,-99.99,,2013-07-18 15:22:00,
2013-07-18 10:32:00,89.0,76.0,-100.00,West,265,7.0,15.0,66,0.00,,,-99.99,,2013-07-18 15:32:00,
2013-07-18 10:43:00,89.0,76.0,-100.00,West,260,8.0,17.0,64,0.00,,,-99.99,,2013-07-18 15:43:00,
2013-07-18 11:01:00,90.0,75.0,-100.00,West,265,8.0,16.0,63,0.00,,,-99.99,,2013-07-18 16:01:00,
2013-07-18 11:22:00,90.0,75.0,-100.00,WNW,290,9.0,14.0,60,0.00,,,-99.99,,2013-07-18 16:22:00,
2013-07-18 11:32:00,90.0,74.0,-100.00,WNW,290,12.0,16.0,58,0.00,,,-99.99,,2013-07-18 16:32:00,
2013-07-18 11:42:00,91.0,74.0,-100.00,West,280,11.0,16.0,57,0.00,,,-99.99,,2013-07-18 16:42:00,
2013-07-18 12:02:00,91.0,74.0,-100.00,WNW,285,9.0,15.0,57,0.00,,,-99.99,,2013-07-18 17:02:00,
2013-07-18 12:11:00,92.0,75.0,-100.00,West,265,6.0,14.0,57,0.00,,,-99.99,,2013-07-18 17:11:00,
2013-07-18 12:22:00,94.0,74.0,-100.00,SW,235,8.0,14.0,53,0.00,,,-99.99,,2013-07-18 17:22:00,
2013-07-18 12:33:00,94.0,74.0,-100.00,SW,235,8.0,14.0,53,0.00,,,-99.99,,2013-07-18 17:33:00,
2013-07-18 12:43:00,93.0,73.0,-100.00,West,270,11.0,16.0,53,0.00,,,-99.99,,2013-07-18 17:43:00,
2013-07-18 13:01:00,93.0,74.0,-100.00,West,275,7.0,13.0,53,0.00,,,-99.99,,2013-07-18 18:01:00,
2013-07-18 13:11:00,94.0,74.0,-100.00,WSW,240,6.0,12.0,53,0.00,,,-99.99,,2013-07-18 18:11:00,
2013-07-18 13:22:00,92.0,72.0,-100.00,WNW,285,11.0,16.0,53,0.00,,,-99.99,,2013-07-18 18:22:00,
2013-07-18 13:43:00,94.0,72.0,-100.00,SW,225,10.0,16.0,47,0.00,,,-99.99,,2013-07-18 18:43:00,
2013-07-18 14:11:00,95.0,72.0,-100.00,SW,225,14.0,19.0,47,0.00,,,-99.99,,2013-07-18 19:11:00,
2013-07-18 14:22:00,94.0,72.0,-100.00,SW,230,10.0,19.0,49,0.00,,,-99.99,,2013-07-18 19:22:00,
2013-07-18 14:32:00,94.0,72.0,-100.00,SW,230,10.0,19.0,49,0.00,,,-99.99,,2013-07-18 19:32:00,
2013-07-18 14:43:00,94.0,71.0,-100.00,West,275,9.0,16.0,47,0.00,,,-99.99,,2013-07-18 19:43:00,
2013-07-18 15:11:00,94.0,72.0,-100.00,WSW,250,7.0,12.0,49,0.00,,,-99.99,,2013-07-18 20:11:00,
2013-07-18 15:22:00,95.0,73.0,-100.00,SW,230,11.0,17.0,49,0.00,,,-99.99,,2013-07-18 20:22:00,
2013-07-18 15:32:00,95.0,73.0,-100.00,SW,230,11.0,17.0,49,0.00,,,-99.99,,2013-07-18 20:32:00,
2013-07-18 15:43:00,94.0,73.0,-100.00,SW,235,7.0,14.0,49,0.00,,,-99.99,,2013-07-18 20:43:00,
2013-07-18 15:52:00,95.0,72.0,-100.00,SW,220,10.0,18.0,48,0.00,,,-99.99,,2013-07-18 20:52:00,
2013-07-18 16:11:00,95.0,71.0,-100.00,SW,220,9.0,18.0,46,0.00,,,-99.99,,2013-07-18 21:11:00,
2013-07-18 16:22:00,96.0,72.0,-100.00,SW,230,9.0,17.0,47,0.00,,,-99.99,,2013-07-18 21:22:00,
2013-07-18 16:32:00,95.0,70.0,-100.00,WSW,245,11.0,19.0,45,0.00,,,-99.99,,2013-07-18 21:32:00,
2013-07-18 16:43:00,95.0,70.0,-100.00,SW,230,12.0,17.0,44,0.00,,,-99.99,,2013-07-18 21:43:00,
2013-07-18 16:52:00,96.0,71.0,-100.00,SW,230,9.0,16.0,44,0.00,,,-99.99,,2013-07-18 21:52:00,
2013-07-18 17:01:00,94.0,71.0,-100.00,West,280,12.0,19.0,47,0.00,,,-99.99,,2013-07-18 22:01:00,
2013-07-18 17:11:00,95.0,71.0,-100.00,SW,235,9.0,18.0,45,0.00,,,-99.99,,2013-07-18 22:11:00,
2013-07-18 17:22:00,95.0,69.0,-100.00,West,265,9.0,18.0,43,0.00,,,-99.99,,2013-07-18 22:22:00,
2013-07-18 17:32:00,95.0,70.0,-100.00,WSW,250,8.0,20.0,43,0.00,,,-99.99,,2013-07-18 22:32:00,
2013-07-18 17:43:00,95.0,72.0,-100.00,WSW,245,6.0,13.0,46,0.00,,,-99.99,,2013-07-18 22:43:00,
2013-07-18 18:02:00,95.0,71.0,-100.00,West,275,6.0,20.0,46,0.00,,,-99.99,,2013-07-18 23:02:00,
2013-07-18 18:11:00,95.0,71.0,-100.00,SW,230,9.0,16.0,46,0.00,,,-99.99,,2013-07-18 23:11:00,
2013-07-18 18:22:00,95.0,71.0,-100.00,SW,235,6.0,15.0,45,0.00,,,-99.99,,2013-07-18 23:22:00,
2013-07-18 18:32:00,94.0,72.0,-100.00,West,270,7.0,13.0,49,0.00,,,-99.99,,2013-07-18 23:32:00,
2013-07-18 18:42:00,94.0,71.0,-100.00,WSW,255,7.0,16.0,47,0.00,,,-99.99,,2013-07-18 23:42:00,
2013-07-18 19:01:00,94.0,71.0,-100.00,WSW,245,7.0,15.0,47,0.00,,,-99.99,,2013-07-19 00:01:00,
2013-07-18 19:11:00,94.0,71.0,-100.00,SSW,210,6.0,12.0,47,0.00,,,-99.99,,2013-07-19 00:11:00,
2013-07-18 19:22:00,93.0,71.0,-100.00,SW,235,7.0,16.0,49,0.00,,,-99.99,,2013-07-19 00:22:00,
2013-07-18 19:32:00,93.0,71.0,-100.00,SW,225,6.0,11.0,50,0.00,,,-99.99,,2013-07-19 00:32:00,
2013-07-18 19:43:00,92.0,72.0,-100.00,SW,230,4.0,10.0,51,0.00,,,-99.99,,2013-07-19 00:43:00,
2013-07-18 20:01:00,91.0,72.0,-100.00,SW,225,5.0,12.0,53,0.00,,,-99.99,,2013-07-19 01:01:00,
2013-07-18 20:11:00,91.0,72.0,-100.00,SW,220,6.0,9.0,54,0.00,,,-99.99,,2013-07-19 01:11:00,
2013-07-18 20:22:00,90.0,72.0,-100.00,SW,220,6.0,9.0,55,0.00,,,-99.99,,2013-07-19 01:22:00,
2013-07-18 20:32:00,90.0,72.0,-100.00,SW,225,7.0,11.0,55,0.00,,,-99.99,,2013-07-19 01:32:00,
2013-07-18 20:42:00,89.0,72.0,-100.00,SW,230,6.0,10.0,56,0.00,,,-99.99,,2013-07-19 01:42:00,
2013-07-18 20:52:00,89.0,72.0,-100.00,SW,235,6.0,9.0,57,0.00,,,-99.99,,2013-07-19 01:52:00,
2013-07-18 21:02:00,88.0,72.0,-100.00,SW,235,4.0,9.0,59,0.00,,,-99.99,,2013-07-19 02:02:00,
2013-07-18 21:11:00,88.0,71.0,-100.00,SW,235,6.0,9.0,59,0.00,,,-99.99,,2013-07-19 02:11:00,
2013-07-18 21:22:00,87.0,71.0,-100.00,SW,225,5.0,9.0,59,0.00,,,-99.99,,2013-07-19 02:22:00,
2013-07-18 21:32:00,87.0,72.0,-100.00,SW,230,6.0,9.0,60,0.00,,,-99.99,,2013-07-19 02:32:00,
2013-07-18 21:42:00,86.0,72.0,-100.00,SW,235,6.0,10.0,61,0.13,,,-99.99,,2013-07-19 02:42:00,
2013-07-18 22:01:00,85.0,72.0,-100.00,SW,235,7.0,10.0,63,0.00,,,-99.99,,2013-07-19 03:01:00,
2013-07-18 22:11:00,85.0,72.0,-100.00,SW,220,5.0,10.0,65,0.00,,,-99.99,,2013-07-19 03:11:00,
2013-07-18 22:22:00,84.0,72.0,-100.00,SW,235,5.0,8.0,66,0.00,,,-99.99,,2013-07-19 03:22:00,
2013-07-18 22:43:00,84.0,72.0,-100.00,SW,230,7.0,10.0,67,0.00,,,-99.99,,2013-07-19 03:43:00,
2013-07-18 23:02:00,83.0,72.0,-100.00,SW,225,7.0,11.0,68,0.00,,,-99.99,,2013-07-19 04:02:00,
2013-07-18 23:12:00,83.0,72.0,-100.00,WSW,250,6.0,10.0,69,0.00,,,-99.99,,2013-07-19 04:12:00,
2013-07-18 23:22:00,83.0,72.0,-100.00,SW,220,8.0,11.0,69,0.00,,,-99.99,,2013-07-19 04:22:00,
2013-07-18 23:33:00,82.0,71.0,-100.00,SW,235,8.0,12.0,69,0.00,,,-99.99,,2013-07-19 04:33:00,
2013-07-18 23:44:00,82.0,71.0,-100.00,SW,230,8.0,11.0,70,0.00,,,-99.99,,2013-07-19 04:44:00,
2013-07-18 23:52:00,82.0,71.0,-100.00,SW,230,7.0,11.0,70,0.00,,,-99.99,,2013-07-19 04:52:00,